Time;durP1;ratioP1;P1;durP2;ratioP2;P2;SDS_P1;SDS_P2;PMS_P1;PMS_P2;Temp;Humidity;BMP_temperature;BMP_pressure;BME280_temperature;BME280_humidity;BME280_pressure;Samples;Min_cycle;Max_cycle;Signal;HPM_P1;HPM_P2
2022/01/26 00:07:08;;;;;;;88.97;43.85;;;2.90;99.90;;;;;;5089339;28;20055;-50
2022/01/26 00:09:33;;;;;;;89.90;44.55;;;2.90;99.90;;;;;;5086292;28;20111;-53
2022/01/26 00:11:59;;;;;;;85.10;44.47;;;2.90;99.90;;;;;;5085683;28;20086;-51
2022/01/26 00:14:24;;;;;;;89.53;44.10;;;2.90;99.90;;;;;;5082823;28;20037;-53
2022/01/26 00:16:50;;;;;;;89.28;43.70;;;2.90;99.90;;;;;;5085149;28;20086;-53
2022/01/26 00:19:22;;;;;;;90.80;46.33;;;2.90;99.90;;;;;;5082128;28;20052;-51
2022/01/26 00:21:52;;;;;;;90.32;46.25;;;2.90;99.90;;;;;;5093718;28;20048;-52
2022/01/26 00:29:23;;;;;;;90.30;44.13;;;2.90;99.90;;;;;;5089028;28;20075;-55
2022/01/26 00:40:38;;;;;;;93.22;45.42;;;2.90;99.90;;;;;;5087657;28;20087;-53
2022/01/26 00:43:21;;;;;;;88.15;42.45;;;2.80;99.90;;;;;;5083826;28;20037;-51
2022/01/26 00:45:49;;;;;;;90.63;44.72;;;2.80;99.90;;;;;;5076383;28;20041;-53
2022/01/26 00:48:20;;;;;;;91.75;44.30;;;2.80;99.90;;;;;;5090036;28;20052;-53
2022/01/26 00:50:50;;;;;;;88.13;42.50;;;2.80;99.90;;;;;;5079962;28;20047;-50
2022/01/26 00:53:16;;;;;;;87.93;41.47;;;2.80;99.90;;;;;;5080541;28;20041;-51
2022/01/26 00:55:42;;;;;;;95.43;45.10;;;2.80;99.90;;;;;;5080094;28;20096;-52
2022/01/26 00:58:08;;;;;;;92.65;45.33;;;2.80;99.90;;;;;;5077719;28;20158;-53
2022/01/26 01:00:33;;;;;;;90.70;46.13;;;2.80;99.90;;;;;;5076306;28;20056;-49
2022/01/26 01:03:01;;;;;;;91.63;43.03;;;2.80;99.90;;;;;;5070786;28;20086;-53
2022/01/26 01:05:34;;;;;;;88.90;43.43;;;2.80;99.90;;;;;;5086539;28;20049;-52
2022/01/26 01:08:05;;;;;;;95.97;45.17;;;2.80;99.90;;;;;;5077749;28;20311;-50
2022/01/26 01:10:31;;;;;;;99.93;46.40;;;2.80;99.90;;;;;;5088590;28;20048;-51
2022/01/26 01:12:59;;;;;;;93.45;45.25;;;2.80;99.90;;;;;;5087279;28;20048;-51
2022/01/26 01:15:26;;;;;;;92.03;44.30;;;2.80;99.90;;;;;;5082031;28;20064;-54
2022/01/26 01:17:57;;;;;;;94.32;45.90;;;2.80;99.90;;;;;;5088731;28;20047;-51
2022/01/26 01:26:22;;;;;;;87.03;42.53;;;2.80;99.90;;;;;;5090456;28;20052;-53
2022/01/26 01:31:16;;;;;;;90.80;43.30;;;2.80;99.90;;;;;;5085196;28;20048;-50
2022/01/26 01:33:46;;;;;;;92.18;43.47;;;2.70;99.90;;;;;;5088459;28;20044;-52
2022/01/26 01:36:12;;;;;;;91.57;42.75;;;2.80;99.90;;;;;;5089738;28;20067;-51
2022/01/26 01:38:41;;;;;;;89.00;41.55;;;2.80;99.90;;;;;;5080012;28;20041;-53
2022/01/26 01:41:07;;;;;;;90.57;41.95;;;2.80;99.90;;;;;;5080218;28;20143;-52
2022/01/26 01:43:32;;;;;;;93.05;43.13;;;2.70;99.90;;;;;;5075464;28;20223;-52
2022/01/26 01:45:58;;;;;;;92.05;43.10;;;2.80;99.90;;;;;;5083231;28;20047;-55
2022/01/26 01:48:30;;;;;;;89.15;42.17;;;2.70;99.90;;;;;;5082155;28;20122;-52
2022/01/26 01:50:58;;;;;;;91.35;43.13;;;2.70;99.90;;;;;;5091183;28;20064;-52
2022/01/26 01:53:32;;;;;;;96.43;43.88;;;2.70;99.90;;;;;;5090893;28;20051;-52
2022/01/26 01:56:00;;;;;;;89.90;42.67;;;2.70;99.90;;;;;;5093380;28;20041;-49
2022/01/26 01:58:26;;;;;;;88.15;41.63;;;2.70;99.90;;;;;;5086272;28;20059;-49
2022/01/26 02:00:52;;;;;;;89.32;40.47;;;2.70;99.90;;;;;;5084611;28;20048;-54
2022/01/26 02:03:17;;;;;;;82.38;39.13;;;2.70;99.90;;;;;;5083258;28;20032;-54
2022/01/26 02:05:43;;;;;;;86.60;39.72;;;2.70;99.90;;;;;;5089535;28;20112;-51
2022/01/26 02:08:08;;;;;;;80.35;37.35;;;2.60;99.90;;;;;;5084428;28;20060;-51
2022/01/26 02:10:35;;;;;;;81.35;37.85;;;2.60;99.90;;;;;;5076341;28;20044;-54
2022/01/26 02:13:05;;;;;;;83.68;39.70;;;2.70;99.90;;;;;;5083318;28;20051;-54
2022/01/26 02:15:48;;;;;;;87.53;42.40;;;2.70;99.90;;;;;;5074744;28;20048;-54
2022/01/26 02:18:36;;;;;;;86.63;39.92;;;2.70;99.90;;;;;;5080235;28;20109;-53
2022/01/26 02:57:04;;;;;;;75.90;35.17;;;2.60;99.90;;;;;;5072458;28;20075;-52
2022/01/26 03:00:09;;;;;;;79.90;34.83;;;2.60;99.90;;;;;;5074029;28;20049;-51
2022/01/26 03:02:43;;;;;;;80.40;36.47;;;2.50;99.90;;;;;;5079776;28;20036;-50
2022/01/26 03:05:12;;;;;;;81.18;37.78;;;2.50;99.90;;;;;;5076416;28;20088;-52
2022/01/26 03:07:42;;;;;;;81.35;36.65;;;2.50;99.90;;;;;;5082055;28;20482;-53
2022/01/26 03:10:57;;;;;;;81.13;35.00;;;2.50;99.90;;;;;;5081606;28;20044;-51
2022/01/26 03:13:01;;;;;;;78.32;34.83;;;2.50;99.90;;;;;;5079268;28;20056;-51
2022/01/26 03:15:39;;;;;;;82.00;37.45;;;2.50;99.90;;;;;;5080798;28;20032;-51
2022/01/26 03:18:32;;;;;;;;;;;2.50;99.90;;;;;;5082120;28;20053;-50
2022/01/26 03:21:01;;;;;;;78.43;32.85;;;2.50;99.90;;;;;;5091105;28;20385;-52
2022/01/26 03:29:26;;;;;;;74.45;33.05;;;2.40;99.90;;;;;;5089683;28;20064;-51
2022/01/26 03:34:26;;;;;;;77.93;32.70;;;2.40;99.90;;;;;;5090335;28;20115;-50
2022/01/26 03:36:57;;;;;;;73.90;34.13;;;2.40;99.90;;;;;;5107499;28;20053;-51
2022/01/26 03:39:24;;;;;;;75.43;34.22;;;2.30;99.90;;;;;;5089570;28;20036;-53
2022/01/26 03:41:56;;;;;;;80.88;34.83;;;2.40;99.90;;;;;;5089693;28;20159;-51
2022/01/26 03:44:22;;;;;;;76.55;33.65;;;2.40;99.90;;;;;;5103864;28;20052;-50
2022/01/26 03:46:49;;;;;;;76.43;33.33;;;2.40;99.90;;;;;;5107061;28;20050;-53
2022/01/26 03:49:15;;;;;;;77.32;33.97;;;2.40;99.90;;;;;;5105225;28;20036;-55
2022/01/26 03:51:42;;;;;;;80.28;33.67;;;2.40;99.90;;;;;;5108509;28;20134;-52
2022/01/26 03:54:08;;;;;;;78.70;33.50;;;2.40;99.90;;;;;;5089515;28;20101;-52
2022/01/26 03:56:34;;;;;;;73.57;33.25;;;2.40;99.90;;;;;;5089815;28;20134;-55
2022/01/26 03:59:00;;;;;;;76.53;32.95;;;2.40;99.90;;;;;;5099822;28;20515;-51
2022/01/26 04:01:25;;;;;;;79.43;35.15;;;2.40;99.90;;;;;;5108423;28;20027;-54
2022/01/26 04:03:51;;;;;;;77.38;34.75;;;2.40;99.90;;;;;;5091818;28;20074;-54
2022/01/26 04:06:17;;;;;;;73.43;32.83;;;2.30;99.90;;;;;;5088426;28;20056;-52
2022/01/26 04:08:44;;;;;;;76.65;34.00;;;2.30;99.90;;;;;;5089995;28;20068;-53
2022/01/26 04:14:21;;;;;;;77.93;32.05;;;2.30;99.90;;;;;;5094824;28;20421;-52
2022/01/26 04:16:47;;;;;;;75.90;32.70;;;2.30;99.90;;;;;;5108111;28;20179;-52
2022/01/26 04:19:13;;;;;;;78.30;32.50;;;2.30;99.90;;;;;;5104157;28;20167;-50
2022/01/26 04:24:22;;;;;;;78.30;33.78;;;2.30;99.90;;;;;;5107730;28;20048;-51
2022/01/26 04:29:23;;;;;;;81.38;33.78;;;2.30;99.90;;;;;;5109117;28;20036;-53
2022/01/26 04:31:48;;;;;;;77.18;33.67;;;2.30;99.90;;;;;;5104678;28;20071;-52
2022/01/26 04:34:14;;;;;;;77.65;31.83;;;2.30;99.90;;;;;;5102904;28;20083;-53
2022/01/26 04:36:47;;;;;;;73.57;31.42;;;2.30;99.90;;;;;;5096403;28;20104;-56
2022/01/26 04:39:17;;;;;;;71.38;31.13;;;2.30;99.90;;;;;;5107959;28;20056;-54
2022/01/26 04:41:50;;;;;;;75.53;30.95;;;2.30;99.90;;;;;;5108494;28;20044;-54
2022/01/26 04:44:22;;;;;;;75.35;31.38;;;2.20;99.90;;;;;;5095283;28;20076;-51
2022/01/26 04:46:48;;;;;;;73.70;31.25;;;2.20;99.90;;;;;;5075773;28;20093;-54
2022/01/26 04:49:14;;;;;;;71.20;31.38;;;2.20;99.90;;;;;;5074911;28;20041;-51
2022/01/26 04:51:40;;;;;;;69.00;31.00;;;2.20;99.90;;;;;;5087822;28;20033;-50
2022/01/26 04:54:05;;;;;;;76.60;31.88;;;2.20;99.90;;;;;;5087702;28;20041;-53
2022/01/26 04:56:31;;;;;;;73.97;31.58;;;2.20;99.90;;;;;;5091524;28;20052;-50
2022/01/26 04:58:56;;;;;;;76.32;31.35;;;2.20;99.90;;;;;;5089143;28;20044;-53
2022/01/26 05:01:22;;;;;;;75.93;31.10;;;2.20;99.90;;;;;;5084009;28;20052;-50
2022/01/26 05:03:47;;;;;;;69.25;29.60;;;2.20;99.90;;;;;;5082636;28;20058;-52
2022/01/26 05:06:13;;;;;;;74.80;31.77;;;2.10;99.90;;;;;;5093747;28;20063;-54
2022/01/26 05:08:39;;;;;;;66.68;29.90;;;2.20;99.90;;;;;;5092844;28;20041;-53
2022/01/26 05:11:07;;;;;;;70.00;30.77;;;2.10;99.90;;;;;;5084515;28;20029;-54
2022/01/26 05:13:33;;;;;;;76.68;29.95;;;2.10;99.90;;;;;;5084705;28;20063;-53
2022/01/26 05:15:58;;;;;;;70.88;28.55;;;2.10;99.90;;;;;;5085915;28;20037;-54
2022/01/26 05:18:24;;;;;;;70.72;30.42;;;2.20;99.90;;;;;;5087081;28;20159;-52
2022/01/26 05:20:51;;;;;;;74.30;29.75;;;2.20;99.90;;;;;;5083504;28;20095;-52
2022/01/26 05:23:16;;;;;;;69.05;29.20;;;2.20;99.90;;;;;;5084944;28;20021;-54
2022/01/26 05:25:42;;;;;;;66.20;28.90;;;2.20;99.90;;;;;;5082993;28;20045;-51
2022/01/26 05:28:08;;;;;;;68.45;29.33;;;2.20;99.90;;;;;;5090702;28;20064;-53
2022/01/26 05:30:33;;;;;;;70.63;29.17;;;2.20;99.90;;;;;;5101190;28;20047;-51
2022/01/26 05:32:59;;;;;;;69.90;28.52;;;2.20;99.90;;;;;;5078066;28;20124;-54
2022/01/26 05:35:24;;;;;;;69.88;29.52;;;2.20;99.90;;;;;;5086702;28;20131;-50
2022/01/26 05:37:50;;;;;;;70.10;30.33;;;2.20;99.90;;;;;;5085318;28;20104;-53
2022/01/26 05:40:16;;;;;;;74.95;31.13;;;2.20;99.90;;;;;;5091810;28;20048;-50
2022/01/26 05:42:42;;;;;;;74.43;31.20;;;2.20;99.90;;;;;;5092718;28;20494;-51
2022/01/26 05:45:18;;;;;;;69.22;29.17;;;2.20;99.90;;;;;;5090633;28;20054;-52
2022/01/26 05:47:43;;;;;;;72.88;30.27;;;2.20;99.90;;;;;;5080173;28;20079;-51
2022/01/26 05:50:09;;;;;;;73.88;30.77;;;2.20;99.90;;;;;;5091398;28;20072;-53
2022/01/26 05:52:35;;;;;;;73.20;29.83;;;2.20;99.90;;;;;;5092207;28;20032;-54
2022/01/26 05:55:00;;;;;;;74.07;31.25;;;2.20;99.90;;;;;;5088269;28;20058;-52
2022/01/26 05:57:26;;;;;;;76.75;30.70;;;2.20;99.90;;;;;;5084418;28;20047;-54
2022/01/26 05:59:54;;;;;;;73.97;29.52;;;2.20;99.90;;;;;;5082538;28;20041;-51
2022/01/26 06:02:19;;;;;;;73.80;30.52;;;2.20;99.90;;;;;;5083402;28;20048;-53
2022/01/26 06:04:45;;;;;;;70.55;29.63;;;2.20;99.90;;;;;;5092197;28;20048;-53
2022/01/26 06:07:10;;;;;;;70.68;29.17;;;2.20;99.90;;;;;;5092695;28;20068;-54
2022/01/26 06:09:36;;;;;;;69.10;29.60;;;2.20;99.90;;;;;;5090723;28;20116;-51
2022/01/26 06:12:02;;;;;;;66.32;27.52;;;2.20;99.90;;;;;;5090271;28;20052;-52
2022/01/26 06:14:27;;;;;;;70.28;28.52;;;2.20;99.90;;;;;;5081240;28;20048;-53
2022/01/26 06:16:53;;;;;;;64.47;29.17;;;2.20;99.90;;;;;;5083258;28;20071;-50
2022/01/26 06:19:18;;;;;;;66.07;27.33;;;2.30;99.90;;;;;;5082206;28;20113;-52
2022/01/26 06:21:44;;;;;;;68.45;27.92;;;2.20;99.90;;;;;;5090696;28;20052;-51
2022/01/26 06:24:09;;;;;;;67.72;27.20;;;2.20;99.90;;;;;;5080818;28;20424;-54
2022/01/26 06:26:35;;;;;;;67.18;26.15;;;2.30;99.90;;;;;;5081568;28;20048;-53
2022/01/26 06:29:00;;;;;;;62.38;26.95;;;2.20;99.90;;;;;;5078612;28;20048;-55
2022/01/26 06:31:27;;;;;;;64.65;27.80;;;2.30;99.90;;;;;;5087369;28;20064;-51
2022/01/26 06:33:53;;;;;;;63.92;27.77;;;2.30;99.90;;;;;;5087618;28;20052;-54
2022/01/26 06:36:19;;;;;;;59.90;24.65;;;2.30;99.90;;;;;;5085882;28;20056;-53
2022/01/26 06:38:46;;;;;;;57.92;24.35;;;2.30;99.90;;;;;;5088868;28;20037;-54
2022/01/26 06:41:13;;;;;;;59.70;24.67;;;2.30;99.90;;;;;;5092023;28;20079;-50
2022/01/26 06:43:48;;;;;;;61.28;24.08;;;2.30;99.90;;;;;;5092645;28;20040;-52
2022/01/26 06:46:21;;;;;;;59.10;23.67;;;2.30;99.90;;;;;;5075410;28;20041;-53
2022/01/26 06:49:02;;;;;;;54.65;23.35;;;2.30;99.90;;;;;;5081477;28;20098;-51
2022/01/26 06:51:29;;;;;;;55.20;22.30;;;2.30;99.90;;;;;;5074771;28;20049;-55
2022/01/26 06:53:54;;;;;;;52.10;23.58;;;2.30;99.90;;;;;;5083885;28;20109;-52
2022/01/26 06:56:20;;;;;;;57.50;23.02;;;2.30;99.90;;;;;;5090795;28;20491;-53
2022/01/26 06:58:45;;;;;;;48.22;19.75;;;2.30;99.90;;;;;;5081364;28;20033;-52
2022/01/26 07:01:11;;;;;;;56.40;23.00;;;2.30;99.90;;;;;;5077684;28;20045;-52
2022/01/26 07:03:36;;;;;;;58.50;24.05;;;2.30;99.90;;;;;;5086928;28;20068;-53
2022/01/26 07:06:02;;;;;;;50.22;20.95;;;2.30;99.90;;;;;;5091652;28;20044;-50
2022/01/26 07:08:27;;;;;;;56.75;24.90;;;2.30;99.90;;;;;;5083263;28;20047;-51
2022/01/26 07:10:53;;;;;;;54.65;22.63;;;2.30;99.90;;;;;;5080611;28;20096;-52
2022/01/26 07:13:20;;;;;;;57.15;22.75;;;2.30;99.90;;;;;;5085127;28;20044;-50
2022/01/26 07:21:27;;;;;;;53.35;23.30;;;2.30;99.90;;;;;;5078877;28;20060;-52
2022/01/26 07:23:55;;;;;;;56.63;24.58;;;2.30;99.90;;;;;;5072682;28;20040;-50
2022/01/26 07:26:21;;;;;;;61.78;25.95;;;2.30;99.90;;;;;;5085841;28;20078;-50
2022/01/26 07:28:47;;;;;;;57.15;25.00;;;2.30;99.90;;;;;;5085004;28;20043;-53
2022/01/26 07:31:13;;;;;;;64.10;27.45;;;2.30;99.90;;;;;;5082526;28;20040;-53
2022/01/26 07:33:41;;;;;;;60.90;26.45;;;2.30;99.90;;;;;;5079007;28;20144;-54
2022/01/26 07:36:07;;;;;;;;;;;2.30;99.90;;;;;;5078176;28;20100;-54
2022/01/26 07:38:33;;;;;;;62.70;27.52;;;2.40;99.90;;;;;;5072165;28;19920;-55
2022/01/26 07:40:58;;;;;;;66.03;29.30;;;2.40;99.90;;;;;;5085109;28;20048;-54
2022/01/26 07:43:25;;;;;;;71.90;31.92;;;2.40;99.90;;;;;;5085786;28;20081;-50
2022/01/26 07:45:50;;;;;;;77.25;32.53;;;2.40;99.90;;;;;;5085929;28;20088;-54
2022/01/26 07:48:16;;;;;;;75.68;32.72;;;2.40;99.90;;;;;;5079908;28;20056;-53
2022/01/26 07:50:42;;;;;;;82.20;34.95;;;2.40;99.90;;;;;;5084105;28;20032;-51
2022/01/26 07:53:14;;;;;;;79.40;34.97;;;2.40;99.90;;;;;;5074319;28;20101;-50
2022/01/26 07:55:39;;;;;;;79.57;34.75;;;2.50;99.90;;;;;;5078211;28;20056;-54
2022/01/26 07:58:08;;;;;;;74.40;33.22;;;2.50;99.90;;;;;;5087681;28;20032;-55
2022/01/26 08:00:34;;;;;;;73.00;35.13;;;2.50;99.90;;;;;;5080496;28;20033;-51
2022/01/26 08:02:59;;;;;;;80.00;34.97;;;2.50;99.90;;;;;;5070609;28;20114;-54
2022/01/26 08:05:25;;;;;;;81.70;36.55;;;2.50;99.90;;;;;;5068470;28;20106;-51
2022/01/26 08:07:50;;;;;;;81.05;35.17;;;2.50;99.90;;;;;;5085529;28;20043;-54
2022/01/26 08:10:16;;;;;;;81.50;36.75;;;2.50;99.90;;;;;;5078252;28;20083;-52
2022/01/26 08:12:42;;;;;;;81.20;37.03;;;2.50;99.90;;;;;;5081576;28;20056;-49
2022/01/26 08:15:08;;;;;;;82.85;38.25;;;2.50;99.90;;;;;;5087219;28;20096;-52
2022/01/26 08:17:38;;;;;;;82.97;37.65;;;2.50;99.90;;;;;;5084043;28;20112;-50
2022/01/26 08:20:05;;;;;;;85.28;38.90;;;2.60;99.90;;;;;;5082461;28;20124;-53
2022/01/26 08:22:32;;;;;;;86.55;39.38;;;2.60;99.90;;;;;;5085607;28;20052;-51
2022/01/26 08:24:57;;;;;;;89.78;41.90;;;2.60;99.90;;;;;;5083795;28;20040;-52
2022/01/26 08:27:26;;;;;;;89.97;42.47;;;2.60;99.90;;;;;;5078667;28;20593;-53
2022/01/26 08:29:56;;;;;;;91.03;43.35;;;2.70;99.90;;;;;;5088466;28;20120;-52
2022/01/26 08:32:22;;;;;;;94.82;44.75;;;2.70;99.90;;;;;;5081453;28;20083;-52
2022/01/26 08:34:48;;;;;;;94.88;42.55;;;2.70;99.90;;;;;;5085124;28;20122;-54
2022/01/26 08:37:13;;;;;;;93.70;43.15;;;2.70;99.90;;;;;;5082487;28;20078;-52
2022/01/26 08:39:39;;;;;;;90.15;43.30;;;2.70;99.90;;;;;;5086504;28;20513;-52
2022/01/26 08:42:06;;;;;;;95.22;44.97;;;2.70;99.90;;;;;;5083406;28;20104;-50
2022/01/26 08:44:33;;;;;;;98.35;46.17;;;2.80;99.90;;;;;;5080758;28;20044;-55
2022/01/26 08:46:58;;;;;;;99.45;46.55;;;2.80;99.90;;;;;;5086103;28;20045;-52
2022/01/26 08:49:27;;;;;;;97.50;46.78;;;2.80;99.90;;;;;;5083596;28;20041;-53
2022/01/26 08:51:54;;;;;;;102.88;47.50;;;2.80;99.90;;;;;;5082979;28;20052;-55
2022/01/26 08:54:22;;;;;;;106.47;50.03;;;2.80;99.90;;;;;;5090710;28;20041;-56
2022/01/26 08:56:52;;;;;;;;;;;2.80;99.90;;;;;;5081975;28;20041;-53
2022/01/26 08:59:18;;;;;;;103.78;49.63;;;2.90;99.90;;;;;;5091827;28;19964;-52
2022/01/26 09:01:43;;;;;;;106.07;49.38;;;2.90;99.90;;;;;;5092381;28;20017;-50
2022/01/26 09:04:09;;;;;;;110.10;53.25;;;2.90;99.90;;;;;;5092987;28;20066;-50
2022/01/26 09:06:39;;;;;;;107.45;52.28;;;2.90;99.90;;;;;;5088447;28;20053;-49
2022/01/26 09:09:07;;;;;;;111.10;53.47;;;2.90;99.90;;;;;;5092342;28;20096;-51
2022/01/26 09:11:36;;;;;;;;;;;2.90;99.90;;;;;;5094534;28;20455;-49
2022/01/26 09:14:07;;;;;;;113.88;53.65;;;2.90;99.90;;;;;;5093656;28;19921;-53
2022/01/26 09:16:34;;;;;;;111.10;53.70;;;2.90;99.90;;;;;;5086680;28;20100;-53
2022/01/26 09:19:06;;;;;;;116.00;54.40;;;3.00;99.90;;;;;;5093631;28;20068;-51
2022/01/26 09:21:32;;;;;;;113.97;55.08;;;3.00;99.90;;;;;;5076945;28;20155;-53
2022/01/26 09:23:58;;;;;;;117.05;57.00;;;3.00;99.90;;;;;;5082495;28;20052;-50
2022/01/26 09:26:23;;;;;;;124.45;58.92;;;3.00;99.90;;;;;;5093929;28;20538;-50
2022/01/26 09:28:49;;;;;;;127.13;59.90;;;3.10;99.90;;;;;;5093070;28;20044;-52
2022/01/26 09:31:14;;;;;;;121.88;58.65;;;3.10;99.90;;;;;;5094569;28;20055;-54
2022/01/26 09:33:40;;;;;;;125.25;57.42;;;3.10;99.90;;;;;;5083939;28;20040;-53
2022/01/26 09:36:07;;;;;;;122.53;58.47;;;3.10;99.90;;;;;;5086641;28;20036;-53
2022/01/26 09:38:33;;;;;;;127.13;58.92;;;3.20;99.90;;;;;;5082681;28;20060;-53
2022/01/26 09:40:58;;;;;;;121.13;59.58;;;3.10;99.90;;;;;;5088230;28;20100;-54
2022/01/26 09:43:27;;;;;;;128.23;61.35;;;3.20;99.90;;;;;;5084893;28;20168;-49
2022/01/26 09:45:53;;;;;;;122.97;58.97;;;3.20;99.90;;;;;;5084791;28;20033;-52
2022/01/26 09:48:19;;;;;;;124.00;59.63;;;3.20;99.90;;;;;;5093737;28;20047;-52
2022/01/26 09:50:47;;;;;;;133.15;60.50;;;3.20;99.90;;;;;;5093160;28;20156;-51
2022/01/26 09:53:20;;;;;;;123.10;58.88;;;3.20;99.90;;;;;;5084998;28;20060;-50
2022/01/26 09:55:45;;;;;;;134.55;61.83;;;3.30;99.90;;;;;;5073513;28;20037;-49
2022/01/26 09:58:11;;;;;;;141.07;62.20;;;3.20;99.90;;;;;;5074249;28;20037;-50
2022/01/26 10:00:37;;;;;;;124.68;58.92;;;3.30;99.90;;;;;;5079253;28;20036;-52
2022/01/26 10:03:05;;;;;;;126.75;60.08;;;3.30;99.90;;;;;;5088915;28;20343;-50
2022/01/26 10:05:39;;;;;;;125.38;59.55;;;3.30;99.90;;;;;;5076550;28;20059;-51
2022/01/26 10:16:29;;;;;;;132.15;61.63;;;3.40;99.90;;;;;;5093631;28;20102;-50
2022/01/26 10:18:56;;;;;;;131.27;61.38;;;3.30;99.90;;;;;;5081638;28;20055;-49
2022/01/26 10:21:23;;;;;;;129.63;59.10;;;3.30;99.90;;;;;;5073280;28;20116;-51
2022/01/26 10:23:49;;;;;;;126.60;59.88;;;3.40;99.90;;;;;;5072455;28;20045;-50
2022/01/26 10:26:18;;;;;;;131.43;59.42;;;3.40;99.90;;;;;;5086009;28;20045;-51
2022/01/26 10:28:45;;;;;;;121.38;58.35;;;3.40;99.90;;;;;;5093007;28;20111;-49
2022/01/26 10:31:14;;;;;;;129.80;59.90;;;3.40;99.90;;;;;;5093128;28;20401;-50
2022/01/26 10:33:40;;;;;;;129.73;61.67;;;3.40;99.90;;;;;;5085946;28;20423;-52
2022/01/26 10:36:06;;;;;;;124.85;59.60;;;3.50;99.90;;;;;;5072889;28;20097;-49
2022/01/26 10:38:31;;;;;;;132.82;60.15;;;3.50;99.90;;;;;;5077656;28;20040;-49
2022/01/26 10:41:00;;;;;;;126.57;58.28;;;3.50;99.90;;;;;;5092279;28;20064;-51
2022/01/26 10:43:29;;;;;;;129.60;59.78;;;3.50;99.90;;;;;;5089339;28;20116;-53
2022/01/26 10:46:03;;;;;;;121.43;57.20;;;3.50;99.90;;;;;;5072349;28;20057;-52
2022/01/26 10:49:03;;;;;;;123.72;58.50;;;3.60;99.90;;;;;;5074412;28;20082;-50
2022/01/26 10:51:51;;;;;;;116.90;55.15;;;3.60;99.90;;;;;;5091387;28;20098;-54
2022/01/26 10:57:01;;;;;;;118.00;57.08;;;3.60;99.90;;;;;;5087106;28;20037;-49
2022/01/26 10:59:26;;;;;;;119.05;57.78;;;3.60;99.90;;;;;;5085323;28;20033;-51
2022/01/26 11:01:53;;;;;;;118.85;55.80;;;3.70;99.90;;;;;;5092386;28;20547;-52
2022/01/26 11:04:19;;;;;;;119.97;57.70;;;3.70;99.90;;;;;;5090921;28;20044;-49
2022/01/26 11:06:52;;;;;;;124.05;57.03;;;3.70;99.90;;;;;;5090641;28;20088;-50
2022/01/26 11:09:21;;;;;;;106.85;53.13;;;3.80;99.90;;;;;;5071858;28;20095;-50
2022/01/26 11:11:47;;;;;;;110.75;53.33;;;3.80;99.90;;;;;;5072013;28;20079;-50
2022/01/26 11:14:14;;;;;;;104.32;49.97;;;3.80;99.90;;;;;;5071246;28;20452;-52
2022/01/26 11:17:00;;;;;;;106.93;53.15;;;3.80;99.90;;;;;;5071202;28;20033;-54
2022/01/26 11:19:26;;;;;;;99.97;48.92;;;3.90;99.90;;;;;;5077515;28;20075;-51
2022/01/26 11:21:51;;;;;;;98.15;50.13;;;4.00;99.90;;;;;;5070466;28;20037;-51
2022/01/26 11:24:23;;;;;;;97.60;49.70;;;4.00;99.90;;;;;;5072017;28;20095;-50
2022/01/26 11:27:03;;;;;;;104.45;49.00;;;4.00;99.90;;;;;;5070869;28;20056;-54
2022/01/26 11:29:34;;;;;;;97.05;47.35;;;4.00;99.90;;;;;;5072362;28;20041;-49
2022/01/26 11:32:17;;;;;;;95.30;46.90;;;4.00;99.90;;;;;;5071749;28;20056;-51
2022/01/26 11:34:43;;;;;;;96.63;48.42;;;4.00;99.90;;;;;;5086722;28;20370;-50
2022/01/26 11:37:16;;;;;;;88.70;47.00;;;4.00;99.90;;;;;;5091397;28;20071;-52
2022/01/26 11:45:03;;;;;;;96.60;48.85;;;4.10;99.90;;;;;;5070832;28;20110;-52
2022/01/26 11:45:33;;;;;;;96.35;47.75;;;4.00;99.90;;;;;;5072535;28;20041;-53
2022/01/26 11:48:07;;;;;;;95.43;48.00;;;4.00;99.90;;;;;;5075382;28;20179;-54
2022/01/26 11:50:35;;;;;;;92.05;47.22;;;4.00;99.90;;;;;;5091544;28;20040;-50
2022/01/26 11:53:03;;;;;;;93.70;45.73;;;4.00;99.90;;;;;;5091327;28;20086;-50
2022/01/26 11:55:40;;;;;;;93.65;47.90;;;4.00;99.90;;;;;;5091866;28;20032;-50
2022/01/26 11:58:19;;;;;;;92.57;46.55;;;4.00;99.90;;;;;;5077754;28;20049;-51
2022/01/26 12:03:47;;;;;;;83.00;42.40;;;4.00;99.90;;;;;;5076509;28;20060;-49
2022/01/26 12:06:21;;;;;;;89.63;44.60;;;4.00;99.90;;;;;;5091893;28;20049;-50
2022/01/26 12:08:48;;;;;;;85.85;45.80;;;4.00;99.90;;;;;;5094633;28;20041;-52
2022/01/26 12:11:16;;;;;;;85.18;44.30;;;4.00;99.90;;;;;;5095528;28;20115;-53
2022/01/26 12:13:44;;;;;;;86.78;45.42;;;4.00;99.90;;;;;;5095639;28;20059;-50
2022/01/26 12:16:14;;;;;;;;;;;4.10;99.90;;;;;;5090981;28;20048;-51
2022/01/26 12:18:51;;;;;;;92.10;44.92;;;4.10;99.90;;;;;;5094370;28;20283;-50
2022/01/26 12:43:38;;;;;;;85.15;44.95;;;4.20;99.90;;;;;;5089393;28;20076;-51
2022/01/26 12:46:07;;;;;;;89.47;45.35;;;4.10;99.90;;;;;;5094527;28;20044;-53
2022/01/26 12:48:34;;;;;;;87.03;44.80;;;4.20;99.90;;;;;;5093637;28;20048;-51
2022/01/26 12:51:03;;;;;;;83.00;44.97;;;4.20;99.90;;;;;;5090053;28;20048;-51
2022/01/26 12:53:32;;;;;;;84.85;43.83;;;4.20;99.90;;;;;;5073819;28;20044;-51
2022/01/26 12:56:06;;;;;;;86.75;45.25;;;4.20;99.90;;;;;;5075686;28;20068;-52
2022/01/26 12:58:35;;;;;;;83.80;43.60;;;4.30;99.90;;;;;;5087267;28;20063;-51
2022/01/26 13:01:05;;;;;;;84.47;45.25;;;4.30;99.90;;;;;;5094300;28;20482;-53
2022/01/26 13:03:37;;;;;;;84.82;44.40;;;4.40;99.90;;;;;;5084463;28;20037;-53
2022/01/26 13:06:11;;;;;;;85.05;43.40;;;4.30;99.90;;;;;;5074078;28;20060;-51
2022/01/26 13:08:43;;;;;;;85.10;44.65;;;4.30;99.90;;;;;;5074263;28;20045;-52
2022/01/26 13:11:09;;;;;;;79.40;41.80;;;4.30;99.90;;;;;;5073775;28;20037;-50
2022/01/26 13:13:35;;;;;;;84.95;44.65;;;4.30;99.90;;;;;;5077078;28;20647;-54
2022/01/26 13:16:12;;;;;;;85.53;44.45;;;4.30;99.90;;;;;;5093242;28;20044;-51
2022/01/26 13:19:07;;;;;;;85.55;43.47;;;4.30;99.90;;;;;;5084747;28;20394;-52
2022/01/26 13:21:46;;;;;;;79.70;42.58;;;4.30;99.90;;;;;;5077553;28;20045;-52
2022/01/26 13:30:06;;;;;;;76.82;41.05;;;4.40;99.90;;;;;;5092039;28;20044;-54
2022/01/26 13:35:42;;;;;;;87.10;44.15;;;4.40;99.90;;;;;;5072470;28;20076;-51
2022/01/26 13:38:18;;;;;;;84.88;41.22;;;4.50;99.90;;;;;;5082519;28;20059;-54
2022/01/26 13:40:57;;;;;;;79.60;40.97;;;4.50;99.90;;;;;;5079381;28;20584;-54
2022/01/26 13:49:10;;;;;;;73.50;40.75;;;4.60;99.90;;;;;;5092252;28;20108;-53
2022/01/26 13:59:27;;;;;;;85.20;42.45;;;4.60;99.90;;;;;;5087213;28;20081;-54
2022/01/26 14:01:52;;;;;;;81.85;41.78;;;4.60;99.90;;;;;;5086251;28;20049;-52
2022/01/26 14:04:19;;;;;;;77.03;41.30;;;4.60;99.90;;;;;;5089641;28;20083;-53
2022/01/26 14:06:47;;;;;;;78.28;40.00;;;4.60;99.90;;;;;;5090183;28;20037;-50
2022/01/26 14:09:14;;;;;;;75.95;39.63;;;4.60;99.90;;;;;;5087051;28;20044;-55
2022/01/26 14:11:39;;;;;;;75.57;39.97;;;4.60;99.90;;;;;;5084899;28;20059;-52
2022/01/26 14:14:06;;;;;;;78.93;39.47;;;4.60;99.90;;;;;;5087767;28;20051;-54
2022/01/26 14:16:40;;;;;;;82.28;39.65;;;4.60;99.90;;;;;;5078551;28;20100;-53
2022/01/26 14:19:25;;;;;;;72.25;38.78;;;4.60;99.90;;;;;;5087826;28;20041;-54
2022/01/26 14:26:47;;;;;;;78.57;38.30;;;4.60;99.90;;;;;;5084503;28;20055;-52
2022/01/26 14:29:23;;;;;;;77.90;38.60;;;4.60;99.90;;;;;;5080713;28;20048;-52
2022/01/26 14:32:02;;;;;;;77.55;38.80;;;4.60;99.90;;;;;;5092787;28;20080;-53
2022/01/26 14:53:49;;;;;;;74.40;35.90;;;4.60;99.90;;;;;;5086102;28;20066;-55
2022/01/26 14:56:03;;;;;;;72.40;36.33;;;4.60;99.90;;;;;;5092297;28;20040;-53
2022/01/26 15:42:22;;;;;;;61.20;33.60;;;4.60;99.90;;;;;;4952237;29;20107;-52
2022/01/26 15:50:13;;;;;;;61.60;33.13;;;4.50;99.90;;;;;;4952224;29;20042;-52
2022/01/26 15:52:58;;;;;;;61.88;31.88;;;4.60;99.90;;;;;;4991254;28;20047;-51
2022/01/26 15:58:24;;;;;;;61.00;31.58;;;4.50;99.90;;;;;;5072452;28;20565;-54
2022/01/26 16:17:17;;;;;;;58.30;32.53;;;4.60;99.90;;;;;;5077856;28;20052;-53
2022/01/26 16:20:15;;;;;;;61.22;32.03;;;4.60;99.90;;;;;;5087887;28;20047;-53
2022/01/26 16:35:11;;;;;;;63.00;31.83;;;4.60;99.90;;;;;;5071710;28;20049;-54
2022/01/26 16:37:41;;;;;;;65.25;32.13;;;4.60;99.90;;;;;;5079621;28;20097;-54
2022/01/26 18:04:01;;;;;;;67.20;36.45;;;4.50;99.90;;;;;;5082444;28;20471;-52
2022/01/26 18:33:13;;;;;;;66.38;35.75;;;4.70;99.90;;;;;;5086979;28;20075;-54
2022/01/26 18:51:48;;;;;;;64.47;35.28;;;4.80;99.90;;;;;;5093328;28;20115;-52
2022/01/26 18:54:15;;;;;;;61.45;35.25;;;4.80;99.90;;;;;;5091920;28;20045;-55
2022/01/26 18:56:41;;;;;;;62.28;37.00;;;4.80;99.90;;;;;;5092642;28;20051;-52
2022/01/26 18:59:08;;;;;;;61.42;35.22;;;4.80;99.90;;;;;;5092608;28;20088;-54
2022/01/26 19:01:34;;;;;;;62.58;36.90;;;4.80;99.90;;;;;;5087563;28;20021;-54
2022/01/26 19:04:00;;;;;;;62.03;37.00;;;4.80;99.90;;;;;;5082785;28;20049;-55